Time;durP1;ratioP1;P1;durP2;ratioP2;P2;SDS_P1;SDS_P2;PMS_P1;PMS_P2;Temp;Humidity;BMP_temperature;BMP_pressure;BME280_temperature;BME280_humidity;BME280_pressure;Samples;Min_cycle;Max_cycle;Signal;HPM_P1;HPM_P2
2023/01/26 00:01:19;;;;;;;102.77;45.07;;;-0.20;1.00;;;;;;5054116;28;20199;-58
2023/01/26 00:03:46;;;;;;;99.10;44.10;;;-0.20;1.00;;;;;;5025621;28;20378;-57
2023/01/26 00:06:17;;;;;;;103.63;43.20;;;-0.20;1.00;;;;;;5044453;28;20311;-59
2023/01/26 00:08:51;;;;;;;101.13;44.93;;;-0.20;1.00;;;;;;5063701;28;20218;-58
2023/01/26 00:11:25;;;;;;;96.30;43.37;;;-0.20;1.00;;;;;;5053816;28;20628;-59
2023/01/26 00:13:53;;;;;;;103.30;43.07;;;-0.40;1.00;;;;;;5054540;28;20580;-59
2023/01/26 00:16:20;;;;;;;94.67;41.70;;;-0.30;1.00;;;;;;5054058;28;20757;-59
2023/01/26 00:18:47;;;;;;;102.77;43.20;;;-0.30;1.00;;;;;;5054434;28;20200;-60
2023/01/26 00:21:17;;;;;;;101.77;43.50;;;-0.40;1.00;;;;;;5051583;28;20194;-58
2023/01/26 00:23:44;;;;;;;102.20;44.63;;;-0.50;1.00;;;;;;5053746;28;20527;-58
2023/01/26 00:26:18;;;;;;;110.63;45.90;;;-0.60;1.00;;;;;;5054979;28;20203;-58
2023/01/26 00:28:45;;;;;;;115.63;45.37;;;-0.60;1.00;;;;;;5019099;28;20281;-57
2023/01/26 00:31:16;;;;;;;112.27;43.53;;;-0.70;1.00;;;;;;5033442;28;20191;-58
2023/01/26 00:33:43;;;;;;;123.10;46.23;;;-0.80;1.00;;;;;;5027522;28;20276;-58
2023/01/26 00:36:10;;;;;;;118.27;45.83;;;-0.80;1.00;;;;;;5054636;28;20206;-58
2023/01/26 00:38:39;;;;;;;118.10;46.03;;;-0.80;1.00;;;;;;5051903;28;20293;-59
2023/01/26 00:41:08;;;;;;;122.33;46.00;;;-0.90;1.00;;;;;;5048238;28;20194;-59
2023/01/26 00:43:35;;;;;;;123.63;46.10;;;-1.00;1.00;;;;;;5051323;28;20302;-58
2023/01/26 00:46:02;;;;;;;120.83;46.63;;;-1.00;1.00;;;;;;5050947;28;20214;-60
2023/01/26 00:48:29;;;;;;;122.17;45.70;;;-1.00;1.00;;;;;;5049014;28;20237;-59
2023/01/26 00:50:56;;;;;;;126.73;44.63;;;-1.00;1.00;;;;;;5051969;28;20685;-59
2023/01/26 00:53:23;;;;;;;129.70;47.13;;;-1.00;1.00;;;;;;5050704;28;20294;-59
2023/01/26 00:55:54;;;;;;;128.23;46.73;;;-1.00;1.00;;;;;;5053577;28;20248;-59
2023/01/26 00:58:21;;;;;;;119.50;46.60;;;-1.00;1.00;;;;;;5054284;28;20309;-59
2023/01/26 01:00:48;;;;;;;127.07;48.73;;;-0.90;1.00;;;;;;5053063;28;20195;-60
2023/01/26 01:03:15;;;;;;;125.40;47.83;;;-0.80;1.00;;;;;;5034273;28;20757;-60
2023/01/26 01:05:46;;;;;;;126.53;46.53;;;-0.70;1.00;;;;;;5052598;28;20199;-59
2023/01/26 01:08:13;;;;;;;117.47;46.73;;;-0.90;1.00;;;;;;5051285;28;20550;-59
2023/01/26 01:10:40;;;;;;;121.93;47.27;;;-0.90;1.00;;;;;;5053813;28;20203;-59
2023/01/26 01:13:07;;;;;;;132.20;46.33;;;-0.80;1.00;;;;;;5052383;28;20219;-58
2023/01/26 01:15:34;;;;;;;116.50;46.87;;;-0.70;1.00;;;;;;5053080;28;20226;-59
2023/01/26 01:18:00;;;;;;;110.87;44.00;;;-0.70;1.00;;;;;;5036218;28;20628;-59
2023/01/26 01:20:28;;;;;;;117.50;46.67;;;-0.60;1.00;;;;;;5051736;28;20330;-59
2023/01/26 01:22:55;;;;;;;122.90;48.20;;;-0.60;1.00;;;;;;5051092;28;20191;-60
2023/01/26 01:25:22;;;;;;;133.47;48.50;;;-0.60;1.00;;;;;;5031119;28;20352;-59
2023/01/26 01:27:49;;;;;;;118.93;47.33;;;-0.70;1.00;;;;;;5053786;28;20207;-60
2023/01/26 01:30:16;;;;;;;125.97;48.67;;;-0.80;1.00;;;;;;5053326;28;20210;-59
2023/01/26 01:32:43;;;;;;;126.43;51.47;;;-0.80;1.00;;;;;;5053191;28;20211;-58
2023/01/26 01:35:10;;;;;;;135.47;48.37;;;-0.80;1.00;;;;;;5055119;28;20197;-59
2023/01/26 01:37:37;;;;;;;127.77;48.60;;;-0.80;4.00;;;;;;5051807;28;20215;-59
2023/01/26 01:40:05;;;;;;;126.57;48.97;;;-0.70;18.90;;;;;;5029267;28;20199;-59
2023/01/26 01:42:33;;;;;;;125.37;48.63;;;-0.70;17.30;;;;;;5045208;28;20199;-58
2023/01/26 01:45:25;;;;;;;123.67;48.17;;;-0.70;24.10;;;;;;5047324;28;20195;-59
2023/01/26 01:47:54;;;;;;;130.70;52.10;;;-0.70;36.70;;;;;;5038181;28;20323;-59
2023/01/26 01:50:23;;;;;;;134.73;50.07;;;-0.60;67.60;;;;;;5053001;28;20261;-59
2023/01/26 01:52:52;;;;;;;126.43;49.53;;;-0.60;56.80;;;;;;5024623;28;20377;-67
2023/01/26 01:55:19;;;;;;;140.40;50.00;;;-0.70;84.90;;;;;;5036698;28;20248;-67
2023/01/26 01:57:53;;;;;;;131.07;50.43;;;-0.70;90.20;;;;;;5052081;28;20290;-66
2023/01/26 02:00:23;;;;;;;129.37;50.27;;;-0.80;99.90;;;;;;5052171;28;20223;-63
2023/01/26 02:03:17;;;;;;;129.90;47.20;;;-0.70;99.90;;;;;;5069989;22;20195;31
2023/01/26 02:06:12;;;;;;;131.53;49.53;;;1.20;99.90;;;;;;4962335;28;20211;-65
2023/01/26 02:08:43;;;;;;;133.10;51.63;;;-0.70;99.90;;;;;;4972338;28;20745;-67
2023/01/26 02:11:16;;;;;;;132.77;49.40;;;-0.70;99.90;;;;;;4960289;28;20206;-67
2023/01/26 02:13:46;;;;;;;114.43;47.37;;;-0.60;99.90;;;;;;4992176;28;20222;-65
2023/01/26 02:16:13;;;;;;;151.37;51.13;;;-0.70;99.90;;;;;;4985152;28;20249;-68
2023/01/26 02:18:40;;;;;;;132.27;51.93;;;-0.70;99.90;;;;;;4962709;28;20202;-66
2023/01/26 02:21:10;;;;;;;145.23;57.07;;;-0.60;99.90;;;;;;4967390;28;20208;-66
2023/01/26 02:24:03;;;;;;;138.60;51.03;;;-0.70;99.90;;;;;;4964662;28;20195;-67
2023/01/26 02:26:32;;;;;;;132.93;50.33;;;-0.50;99.90;;;;;;4993184;28;20596;-67
2023/01/26 02:29:01;;;;;;;128.07;49.93;;;-0.50;99.90;;;;;;4963396;28;20208;-67
2023/01/26 02:31:29;;;;;;;137.50;48.60;;;-0.50;99.90;;;;;;4966572;28;20269;-66
2023/01/26 02:33:57;;;;;;;127.40;50.27;;;-0.50;99.90;;;;;;4992691;28;20706;-67
2023/01/26 02:36:33;;;;;;;129.73;50.83;;;-0.50;99.90;;;;;;4962206;28;20187;-68
2023/01/26 02:39:34;;;;;;;129.03;48.37;;;-0.60;99.90;;;;;;4957001;28;20595;-68
2023/01/26 02:44:46;;;;;;;139.53;49.93;;;-0.40;99.90;;;;;;4968137;28;20210;-68
2023/01/26 02:51:04;;;;;;;124.70;47.63;;;-0.40;99.90;;;;;;4974868;28;20218;-68
2023/01/26 02:53:32;;;;;;;139.33;50.70;;;-0.40;99.90;;;;;;4983698;28;20322;-68
2023/01/26 02:55:59;;;;;;;137.27;49.77;;;-0.30;99.90;;;;;;4967086;28;20209;-68
2023/01/26 02:58:27;;;;;;;123.77;47.73;;;-0.30;99.90;;;;;;4991534;28;20268;-68
2023/01/26 03:00:54;;;;;;;116.60;46.20;;;-0.30;99.90;;;;;;4961369;28;20281;-66
2023/01/26 03:03:42;;;;;;;125.57;46.07;;;-0.40;99.90;;;;;;4991579;28;20253;-68
2023/01/26 03:06:11;;;;;;;114.20;44.70;;;-0.40;99.90;;;;;;4966405;28;20238;-68
2023/01/26 03:08:38;;;;;;;117.80;46.80;;;-0.40;99.90;;;;;;4955070;28;20241;-68
2023/01/26 03:11:07;;;;;;;119.73;45.17;;;-0.40;99.90;;;;;;4958217;28;20374;-67
2023/01/26 03:13:34;;;;;;;109.03;45.00;;;-0.40;99.90;;;;;;4966115;28;20237;-68
2023/01/26 03:16:05;;;;;;;112.20;46.67;;;-0.40;99.90;;;;;;4976102;28;20237;-68
2023/01/26 03:29:45;;;;;;;111.97;45.90;;;-0.30;99.90;;;;;;4966034;28;20631;-67
2023/01/26 03:32:13;;;;;;;101.37;42.67;;;-0.30;99.90;;;;;;4959767;28;20635;-68
2023/01/26 03:34:41;;;;;;;108.53;45.43;;;-0.30;99.90;;;;;;4974809;28;20416;-68
2023/01/26 03:37:08;;;;;;;114.33;45.60;;;-0.30;99.90;;;;;;4974702;28;20607;-68
2023/01/26 03:56:31;;;;;;;119.17;45.77;;;-0.10;1.00;;;;;;4963609;28;20209;-68
2023/01/26 03:59:08;;;;;;;113.17;46.10;;;-0.10;1.00;;;;;;4950207;28;20799;-67
2023/01/26 04:01:40;;;;;;;110.07;46.17;;;-0.10;1.00;;;;;;4966320;28;20270;-69
2023/01/26 04:09:44;;;;;;;111.47;45.10;;;-0.10;1.00;;;;;;4964591;28;20221;-69
2023/01/26 04:12:12;;;;;;;114.27;45.20;;;-0.10;1.00;;;;;;4965481;28;20687;-69
2023/01/26 04:23:26;;;;;;;121.30;46.53;;;-0.10;1.00;;;;;;4973958;28;20292;-67
2023/01/26 04:25:54;;;;;;;121.17;47.10;;;-0.10;99.90;;;;;;4957996;28;20649;-68
2023/01/26 04:28:22;;;;;;;113.17;45.37;;;-0.10;1.00;;;;;;4972837;28;20210;-60
2023/01/26 04:30:50;;;;;;;116.90;45.20;;;-0.10;99.90;;;;;;4956478;28;20213;-59
2023/01/26 04:33:17;;;;;;;112.30;45.47;;;-0.10;1.00;;;;;;4957547;28;20218;-60
2023/01/26 04:35:44;;;;;;;101.53;42.57;;;-0.10;1.00;;;;;;4958030;28;20191;-59
2023/01/26 04:38:11;;;;;;;109.07;44.63;;;-0.10;1.00;;;;;;4971601;28;20202;-61
2023/01/26 04:40:40;;;;;;;113.10;43.87;;;0.00;1.00;;;;;;4956517;28;20198;-61
2023/01/26 04:43:07;;;;;;;110.40;46.10;;;-0.10;1.00;;;;;;4956258;28;20293;-61
2023/01/26 04:45:35;;;;;;;110.07;47.67;;;-0.10;1.00;;;;;;4973924;28;20209;-69
2023/01/26 04:48:02;;;;;;;108.70;43.50;;;-0.10;1.00;;;;;;4971914;28;20476;-69
2023/01/26 04:50:30;;;;;;;107.23;42.33;;;-0.10;1.00;;;;;;4972839;28;20257;-62
2023/01/26 04:52:58;;;;;;;101.07;42.80;;;-0.10;1.00;;;;;;4955942;28;20669;-61
2023/01/26 04:55:25;;;;;;;105.83;41.93;;;-0.10;1.00;;;;;;4956839;28;20669;-60
2023/01/26 04:57:52;;;;;;;97.63;40.27;;;-0.10;1.00;;;;;;4972456;28;20207;-60
2023/01/26 05:00:19;;;;;;;106.33;44.67;;;-0.10;1.00;;;;;;4956965;28;20260;-61
2023/01/26 05:02:46;;;;;;;109.93;44.67;;;-0.10;1.00;;;;;;4973380;28;20226;-61
2023/01/26 05:05:13;;;;;;;115.13;45.10;;;-0.10;1.00;;;;;;4962737;28;20230;-61
2023/01/26 05:07:41;;;;;;;115.10;44.40;;;0.00;1.00;;;;;;4962302;28;20234;-68
2023/01/26 05:10:08;;;;;;;112.03;44.03;;;-0.10;1.00;;;;;;4955331;28;20211;-69
2023/01/26 05:12:56;;;;;;;129.00;44.40;;;-0.10;1.00;;;;;;4957490;28;20566;-68
2023/01/26 05:15:40;;;;;;;148.30;51.17;;;-0.10;1.00;;;;;;4964211;28;20203;-68
2023/01/26 05:18:24;;;;;;;149.87;51.27;;;-0.10;1.00;;;;;;4956813;28;20219;-69
2023/01/26 05:21:03;;;;;;;156.23;51.83;;;0.00;1.00;;;;;;4959883;28;20765;-68
2023/01/26 05:23:39;;;;;;;155.40;50.17;;;-0.10;1.00;;;;;;4968375;28;20202;-69
2023/01/26 05:26:28;;;;;;;147.20;48.63;;;-0.10;1.00;;;;;;4959718;28;20281;-69
2023/01/26 05:28:59;;;;;;;155.17;51.47;;;-0.10;1.00;;;;;;4968575;28;20241;-69
2023/01/26 05:31:26;;;;;;;154.97;50.43;;;-0.10;1.00;;;;;;4975451;28;20206;-69
2023/01/26 05:33:54;;;;;;;149.67;48.70;;;-0.10;1.00;;;;;;4975703;28;20724;-70
2023/01/26 05:36:22;;;;;;;149.20;49.53;;;-0.10;1.00;;;;;;4960433;28;20217;-70
2023/01/26 05:38:50;;;;;;;136.77;49.23;;;0.00;1.00;;;;;;4959173;28;20199;-70
2023/01/26 05:41:21;;;;;;;147.67;48.27;;;-0.10;1.00;;;;;;4968763;28;20272;-69
2023/01/26 05:44:11;;;;;;;145.60;48.47;;;-0.10;1.00;;;;;;4959495;28;20222;-68
2023/01/26 05:46:45;;;;;;;148.67;51.47;;;-0.10;1.00;;;;;;4969370;28;20680;-70
2023/01/26 05:49:12;;;;;;;140.80;47.57;;;-0.10;1.00;;;;;;4962154;28;20226;-69
2023/01/26 05:51:39;;;;;;;144.17;47.60;;;0.00;1.00;;;;;;4958966;28;20209;-69
2023/01/26 05:54:06;;;;;;;130.87;46.37;;;0.00;1.00;;;;;;4961544;28;20827;-69
2023/01/26 05:56:34;;;;;;;133.97;46.63;;;0.00;1.00;;;;;;4967259;28;20458;-69
2023/01/26 05:59:03;;;;;;;124.37;45.00;;;-0.10;1.00;;;;;;4967140;28;20227;-68
2023/01/26 06:01:30;;;;;;;117.47;45.90;;;-0.10;1.00;;;;;;4960114;28;21009;-68
2023/01/26 06:04:01;;;;;;;117.27;45.80;;;0.00;1.00;;;;;;4960418;28;20238;-69
2023/01/26 06:06:35;;;;;;;118.93;46.97;;;0.00;1.00;;;;;;4965734;28;20256;-68
2023/01/26 06:09:19;;;;;;;111.67;44.57;;;-0.10;1.00;;;;;;4976307;28;20215;-69
2023/01/26 06:12:03;;;;;;;122.03;45.27;;;0.00;1.00;;;;;;4966789;28;20230;-68
2023/01/26 06:14:45;;;;;;;120.03;47.37;;;0.00;1.00;;;;;;4974861;28;20718;-69
2023/01/26 06:17:15;;;;;;;130.57;50.60;;;-0.10;1.00;;;;;;4958976;28;20293;-68
2023/01/26 06:19:43;;;;;;;121.50;48.13;;;-0.10;1.00;;;;;;4966263;28;20190;-68
2023/01/26 06:22:12;;;;;;;112.20;44.83;;;0.00;1.00;;;;;;4957749;28;20199;-69
2023/01/26 06:24:44;;;;;;;117.43;45.60;;;0.00;1.00;;;;;;4959472;28;20231;-70
2023/01/26 06:27:15;;;;;;;121.57;44.80;;;0.00;1.00;;;;;;4973996;28;20210;-69
2023/01/26 06:29:44;;;;;;;119.43;45.37;;;0.00;1.00;;;;;;4958780;28;20198;-69
2023/01/26 06:32:13;;;;;;;123.97;47.17;;;0.00;1.00;;;;;;4966516;28;20214;-68
2023/01/26 06:34:41;;;;;;;116.20;46.43;;;0.00;1.00;;;;;;4965650;28;20210;-69
2023/01/26 06:37:09;;;;;;;121.93;46.03;;;0.00;1.00;;;;;;4957209;28;20274;-69
2023/01/26 06:39:40;;;;;;;116.57;43.77;;;0.00;1.00;;;;;;4957909;28;20195;-69
2023/01/26 06:42:11;;;;;;;107.40;43.63;;;0.10;1.00;;;;;;4966734;28;20635;-69
2023/01/26 06:44:38;;;;;;;109.23;42.90;;;0.10;1.00;;;;;;4975270;28;20859;-68
2023/01/26 06:47:06;;;;;;;111.90;43.30;;;0.00;1.00;;;;;;4974833;28;20198;-69
2023/01/26 06:49:34;;;;;;;114.37;43.70;;;0.00;1.00;;;;;;4965954;28;20268;-69
2023/01/26 06:52:25;;;;;;;110.27;45.90;;;0.00;1.00;;;;;;4974598;28;20202;-69
2023/01/26 06:54:58;;;;;;;111.63;44.43;;;0.00;1.00;;;;;;4966590;28;20226;-69
2023/01/26 06:58:03;;;;;;;92.83;38.93;;;0.00;1.00;;;;;;4935758;29;20207;-70
2023/01/26 07:00:51;;;;;;;97.67;39.23;;;0.00;1.00;;;;;;4934005;29;20225;-69
2023/01/26 07:03:38;;;;;;;98.47;40.70;;;0.00;1.00;;;;;;4955042;28;20238;-69
2023/01/26 07:06:06;;;;;;;97.97;40.10;;;0.00;1.00;;;;;;4940686;28;20217;-65
2023/01/26 07:08:33;;;;;;;98.33;39.50;;;0.00;1.00;;;;;;4959331;28;20230;-69
2023/01/26 07:11:00;;;;;;;107.60;40.70;;;0.00;1.00;;;;;;4961170;28;20868;-69
2023/01/26 07:13:27;;;;;;;105.20;43.57;;;0.00;1.00;;;;;;4957991;28;20214;-69
2023/01/26 07:16:01;;;;;;;109.57;42.13;;;0.10;1.00;;;;;;4961476;28;20223;-70
2023/01/26 07:18:28;;;;;;;110.53;42.53;;;0.10;1.00;;;;;;4964814;28;20737;-67
2023/01/26 07:21:00;;;;;;;118.53;48.50;;;0.10;1.00;;;;;;4963741;28;20187;-66
2023/01/26 07:23:27;;;;;;;109.53;44.87;;;0.10;1.00;;;;;;4960418;28;20213;-69
2023/01/26 07:25:54;;;;;;;101.33;42.33;;;0.10;1.00;;;;;;4962581;28;20206;-68
2023/01/26 07:28:21;;;;;;;109.87;44.50;;;0.00;1.00;;;;;;4962713;28;20209;-68
2023/01/26 07:30:48;;;;;;;117.10;43.77;;;-0.10;1.00;;;;;;4963546;28;20210;-68
2023/01/26 07:33:15;;;;;;;108.57;42.17;;;-0.10;1.00;;;;;;4961354;28;20202;-69
2023/01/26 07:35:42;;;;;;;109.80;42.37;;;-0.10;1.00;;;;;;4959337;28;20213;-68
2023/01/26 07:38:09;;;;;;;108.30;40.40;;;-0.10;1.00;;;;;;4957581;28;20221;-68
2023/01/26 07:40:37;;;;;;;99.87;41.70;;;-0.10;1.00;;;;;;4959330;28;20210;-68
2023/01/26 07:43:04;;;;;;;99.83;39.40;;;-0.10;1.00;;;;;;4957979;28;20611;-69
2023/01/26 07:45:52;;;;;;;101.83;41.20;;;-0.10;1.00;;;;;;4973905;28;20210;-68
2023/01/26 07:48:21;;;;;;;109.57;42.07;;;-0.10;1.00;;;;;;4957142;28;20206;-67
2023/01/26 07:50:49;;;;;;;109.47;42.27;;;0.00;1.00;;;;;;4958107;28;20569;-69
2023/01/26 07:53:21;;;;;;;109.17;42.20;;;-0.10;1.00;;;;;;4977722;28;20267;-69
2023/01/26 07:55:49;;;;;;;106.20;42.10;;;-0.10;1.00;;;;;;4967949;28;20203;-69
2023/01/26 07:58:17;;;;;;;104.67;42.00;;;-0.10;1.00;;;;;;4974550;28;20202;-69
2023/01/26 08:00:46;;;;;;;115.23;43.63;;;0.00;1.00;;;;;;4958580;28;20191;-69
2023/01/26 08:03:13;;;;;;;109.50;43.20;;;0.00;1.00;;;;;;4959011;28;20242;-69
2023/01/26 08:05:42;;;;;;;113.10;42.50;;;0.00;1.00;;;;;;4958504;28;20245;-71
2023/01/26 08:08:10;;;;;;;103.03;41.53;;;0.00;1.00;;;;;;4958879;28;20214;-69
2023/01/26 08:10:37;;;;;;;110.57;43.53;;;0.10;1.00;;;;;;4960119;28;20665;-69
2023/01/26 08:13:04;;;;;;;115.83;43.00;;;0.10;1.00;;;;;;4958416;28;20253;-69
2023/01/26 08:15:31;;;;;;;110.90;43.27;;;0.10;1.00;;;;;;4973589;28;20226;-69
2023/01/26 08:18:02;;;;;;;99.03;42.40;;;0.20;1.00;;;;;;4974519;28;20194;-69
2023/01/26 08:20:29;;;;;;;102.80;42.07;;;0.20;1.00;;;;;;4958347;28;20274;-69
2023/01/26 08:22:56;;;;;;;103.17;41.63;;;0.10;1.00;;;;;;4957695;28;20508;-69
2023/01/26 08:25:26;;;;;;;110.73;42.93;;;0.10;1.00;;;;;;4958961;28;20202;-68
2023/01/26 08:27:54;;;;;;;108.57;42.73;;;0.10;1.00;;;;;;4957164;28;20202;-69
2023/01/26 08:30:20;;;;;;;104.13;39.93;;;0.20;1.00;;;;;;4957644;28;20202;-69
2023/01/26 08:32:47;;;;;;;96.80;40.63;;;0.30;1.00;;;;;;4957542;28;20226;-69
2023/01/26 08:35:14;;;;;;;101.53;42.13;;;0.30;1.00;;;;;;4959258;28;20236;-71
2023/01/26 08:37:41;;;;;;;105.57;41.70;;;0.40;1.00;;;;;;4958130;28;20187;-69
2023/01/26 08:40:09;;;;;;;100.93;42.10;;;0.40;1.00;;;;;;4972854;28;20203;-69
2023/01/26 08:42:36;;;;;;;97.17;39.33;;;0.40;1.00;;;;;;4958692;28;20294;-67
2023/01/26 08:45:04;;;;;;;100.23;41.30;;;0.40;1.00;;;;;;4959027;28;20207;-69
2023/01/26 08:47:31;;;;;;;103.27;41.10;;;0.50;1.00;;;;;;4959826;28;20214;-69
2023/01/26 08:49:57;;;;;;;97.47;40.83;;;0.50;1.00;;;;;;4974578;28;20273;-71
2023/01/26 08:52:24;;;;;;;96.87;40.00;;;0.50;1.00;;;;;;4956939;28;20372;-68
2023/01/26 08:54:51;;;;;;;93.53;41.00;;;0.50;1.00;;;;;;4958556;28;20214;-69
2023/01/26 08:57:18;;;;;;;90.43;40.67;;;0.50;1.00;;;;;;4959836;28;20201;-69
2023/01/26 08:59:45;;;;;;;95.77;41.27;;;0.60;1.00;;;;;;4961744;28;20314;-67
2023/01/26 09:02:12;;;;;;;97.60;41.13;;;0.70;1.00;;;;;;4969799;28;20234;-69
2023/01/26 09:04:39;;;;;;;99.33;42.47;;;0.70;1.00;;;;;;4959594;28;20717;-69
2023/01/26 09:07:06;;;;;;;101.40;43.23;;;0.70;1.00;;;;;;4945795;28;20217;-69
2023/01/26 09:09:33;;;;;;;108.40;43.43;;;0.70;1.00;;;;;;4963271;28;20218;-69
2023/01/26 09:12:00;;;;;;;101.90;44.60;;;0.80;1.00;;;;;;4966082;28;20205;-69
2023/01/26 09:14:27;;;;;;;100.50;41.00;;;0.80;1.00;;;;;;4977011;28;20261;-68
2023/01/26 09:16:54;;;;;;;90.57;39.03;;;0.90;1.00;;;;;;4962414;28;20226;-68
2023/01/26 09:19:21;;;;;;;96.27;41.30;;;0.90;1.00;;;;;;4978460;28;20216;-68
2023/01/26 09:21:53;;;;;;;94.23;40.53;;;0.90;1.00;;;;;;4976594;28;20202;-69
2023/01/26 09:24:20;;;;;;;93.77;39.10;;;1.00;1.00;;;;;;4960484;28;20383;-69
2023/01/26 09:26:48;;;;;;;87.03;37.53;;;1.10;1.00;;;;;;4949863;28;20198;-68
2023/01/26 09:29:15;;;;;;;85.80;37.47;;;0.90;1.00;;;;;;4962481;28;20423;-68
2023/01/26 09:31:42;;;;;;;84.60;36.80;;;0.90;1.00;;;;;;4963494;28;20574;-73
2023/01/26 09:34:09;;;;;;;89.50;38.07;;;1.00;1.00;;;;;;4962442;28;20265;-69
2023/01/26 09:36:36;;;;;;;88.00;38.50;;;1.00;1.00;;;;;;4962078;28;20595;-68
2023/01/26 09:39:07;;;;;;;91.60;39.17;;;1.00;1.00;;;;;;4967407;28;20206;-69
2023/01/26 09:41:52;;;;;;;85.93;37.63;;;1.10;1.00;;;;;;4966021;28;20214;-68
2023/01/26 09:44:23;;;;;;;77.37;35.80;;;1.10;1.00;;;;;;4960614;28;20203;-69
2023/01/26 09:47:30;;;;;;;77.53;33.87;;;1.20;1.00;;;;;;4959663;28;20721;-69
2023/01/26 09:50:14;;;;;;;75.20;32.60;;;1.20;1.00;;;;;;4960084;28;20245;-68
2023/01/26 09:53:03;;;;;;;71.37;33.00;;;1.10;1.00;;;;;;4962124;28;20341;-67
2023/01/26 09:55:31;;;;;;;66.93;30.57;;;1.10;1.00;;;;;;4965304;28;20273;-69
2023/01/26 09:58:14;;;;;;;61.70;28.47;;;1.20;1.00;;;;;;4975443;28;20292;-69
2023/01/26 10:00:55;;;;;;;73.07;30.63;;;1.20;1.00;;;;;;4964048;28;20191;-71
2023/01/26 10:03:38;;;;;;;71.87;30.70;;;1.20;1.00;;;;;;4960224;28;20241;-69
2023/01/26 10:06:20;;;;;;;68.27;31.40;;;1.20;1.00;;;;;;4961928;28;20201;-70
2023/01/26 10:09:28;;;;;;;56.30;26.60;;;1.30;1.00;;;;;;4962284;28;20301;-69
2023/01/26 10:11:58;;;;;;;60.63;28.23;;;1.40;1.00;;;;;;4961600;28;20533;-67
2023/01/26 10:14:44;;;;;;;60.53;28.67;;;1.30;1.00;;;;;;4961050;28;20230;-68
2023/01/26 10:17:26;;;;;;;53.80;26.30;;;1.40;1.00;;;;;;4981294;28;20431;-67
2023/01/26 10:20:05;;;;;;;49.90;25.03;;;1.40;99.90;;;;;;4962517;28;20217;-69
2023/01/26 10:22:39;;;;;;;53.97;25.03;;;1.40;99.90;;;;;;4961654;28;20223;-69
2023/01/26 10:25:19;;;;;;;54.73;26.37;;;1.30;99.90;;;;;;4961652;28;20584;-68
2023/01/26 10:27:46;;;;;;;55.97;26.80;;;1.40;99.90;;;;;;4962652;28;20198;-70
2023/01/26 10:30:16;;;;;;;59.63;27.63;;;1.40;99.90;;;;;;4963408;28;20211;-68
2023/01/26 10:32:45;;;;;;;60.87;31.43;;;1.40;99.90;;;;;;4966450;28;20560;-69
2023/01/26 10:35:21;;;;;;;61.03;29.03;;;1.40;99.90;;;;;;4962897;28;20207;-70
2023/01/26 10:37:51;;;;;;;59.00;27.07;;;1.40;1.00;;;;;;4976308;28;20212;-67
2023/01/26 10:40:19;;;;;;;59.23;26.93;;;1.40;99.90;;;;;;4960398;28;20222;-69
2023/01/26 10:42:57;;;;;;;58.57;27.07;;;1.50;1.00;;;;;;4963335;28;20187;-69
2023/01/26 10:45:30;;;;;;;60.63;28.10;;;1.50;99.90;;;;;;4961233;28;20681;-69
2023/01/26 10:48:15;;;;;;;56.07;26.57;;;1.60;99.90;;;;;;4961596;28;20643;-69
2023/01/26 10:50:42;;;;;;;49.13;23.27;;;1.60;99.90;;;;;;4966088;28;20206;-69
2023/01/26 10:53:16;;;;;;;54.23;27.60;;;1.60;99.90;;;;;;4966318;28;20577;-67
2023/01/26 10:55:56;;;;;;;60.97;30.03;;;1.50;99.90;;;;;;4967510;28;20272;-69
2023/01/26 10:58:45;;;;;;;61.83;30.60;;;1.30;99.90;;;;;;4961938;28;20225;-69
2023/01/26 11:01:14;;;;;;;61.30;28.77;;;1.40;99.90;;;;;;4967269;28;20301;-69
2023/01/26 11:03:51;;;;;;;67.83;33.17;;;1.40;99.90;;;;;;4949825;28;20321;-68
2023/01/26 11:06:27;;;;;;;58.97;28.10;;;1.50;99.90;;;;;;4965288;28;20229;-69
2023/01/26 11:09:26;;;;;;;58.97;28.10;;;1.60;99.90;;;;;;4950337;28;20229;-69
2023/01/26 11:11:56;;;;;;;53.10;25.97;;;1.60;99.90;;;;;;4963095;28;20277;-67
2023/01/26 11:14:24;;;;;;;60.03;28.03;;;1.60;99.90;;;;;;4960099;28;20215;-69
2023/01/26 11:17:08;;;;;;;59.67;25.87;;;1.60;99.90;;;;;;4960816;28;20686;-69
2023/01/26 11:19:47;;;;;;;91.23;37.63;;;1.70;99.90;;;;;;4951432;28;20313;-69
2023/01/26 11:22:53;;;;;;;50.27;25.37;;;1.80;99.90;;;;;;4962065;28;20202;-67
2023/01/26 11:25:38;;;;;;;63.30;28.93;;;1.80;99.90;;;;;;4947809;28;20215;-70
2023/01/26 11:28:39;;;;;;;57.47;27.93;;;1.90;99.90;;;;;;4961436;28;20217;-72
2023/01/26 11:31:18;;;;;;;52.40;26.43;;;1.90;99.90;;;;;;4965822;28;20257;-69
2023/01/26 11:34:00;;;;;;;48.60;24.53;;;1.90;99.90;;;;;;4950159;28;20218;-70
2023/01/26 11:37:01;;;;;;;46.40;22.93;;;1.90;99.90;;;;;;4959800;28;20650;-69
2023/01/26 11:39:43;;;;;;;44.30;22.33;;;1.90;99.90;;;;;;4959404;28;20214;-69
2023/01/26 11:42:37;;;;;;;38.33;20.13;;;1.90;99.90;;;;;;4961066;28;20302;-68
2023/01/26 11:45:16;;;;;;;44.10;21.47;;;2.00;99.90;;;;;;4966486;28;20540;-68
2023/01/26 11:47:46;;;;;;;36.83;19.37;;;2.10;99.90;;;;;;4961596;28;20233;-70
2023/01/26 11:50:29;;;;;;;39.10;20.10;;;2.00;99.90;;;;;;4955934;28;20753;-69
2023/01/26 11:53:42;;;;;;;35.50;18.57;;;2.10;99.90;;;;;;4950424;28;20312;-69
2023/01/26 11:56:17;;;;;;;31.83;17.40;;;2.10;99.90;;;;;;4960024;28;20290;-68
2023/01/26 11:58:56;;;;;;;33.10;18.37;;;2.10;99.90;;;;;;4947899;28;20253;-68
2023/01/26 12:01:42;;;;;;;35.27;20.60;;;2.10;99.90;;;;;;4965030;28;20201;-67
2023/01/26 12:04:20;;;;;;;30.27;17.23;;;2.10;99.90;;;;;;4963950;28;20257;-68
2023/01/26 12:07:05;;;;;;;28.67;17.40;;;2.00;99.90;;;;;;4961138;28;20273;-69
2023/01/26 12:10:01;;;;;;;26.10;15.57;;;2.00;99.90;;;;;;4976853;28;20210;-68
2023/01/26 12:12:42;;;;;;;25.53;14.77;;;2.00;99.90;;;;;;4964295;28;20219;-70
2023/01/26 12:15:28;;;;;;;27.07;14.63;;;1.90;99.90;;;;;;4958164;28;20823;-71
2023/01/26 12:18:22;;;;;;;25.93;14.60;;;1.90;99.90;;;;;;4966647;28;20605;-68
2023/01/26 12:21:07;;;;;;;24.37;14.43;;;1.90;99.90;;;;;;4960898;28;20194;-69
2023/01/26 12:24:01;;;;;;;21.50;13.53;;;1.90;99.90;;;;;;4960890;28;20226;-69
2023/01/26 12:26:32;;;;;;;26.00;14.83;;;1.90;99.90;;;;;;4961229;28;20278;-69
2023/01/26 12:29:25;;;;;;;28.83;16.40;;;1.80;99.90;;;;;;4961275;28;20218;-69
2023/01/26 12:32:02;;;;;;;34.17;20.93;;;1.90;99.90;;;;;;4961808;28;20281;-69
2023/01/26 12:34:32;;;;;;;24.30;14.30;;;1.90;99.90;;;;;;4975744;28;20199;-69
2023/01/26 12:37:31;;;;;;;24.53;14.53;;;1.90;99.90;;;;;;4974322;28;20203;-69
2023/01/26 12:40:06;;;;;;;26.17;14.63;;;1.90;99.90;;;;;;4929641;28;20226;-69
2023/01/26 12:42:41;;;;;;;22.00;14.87;;;1.90;99.90;;;;;;4959271;28;20198;-69
2023/01/26 12:45:18;;;;;;;18.27;11.90;;;1.90;99.90;;;;;;4976359;28;20306;-70
2023/01/26 12:47:54;;;;;;;18.93;11.43;;;2.00;99.90;;;;;;4960745;28;20281;-69
2023/01/26 12:50:26;;;;;;;16.37;10.27;;;2.10;99.90;;;;;;4961297;28;20194;-69
2023/01/26 12:53:12;;;;;;;16.13;10.20;;;2.10;99.90;;;;;;4972970;28;20202;-68
2023/01/26 12:55:51;;;;;;;18.97;11.70;;;2.10;99.90;;;;;;4962553;28;20265;-69
2023/01/26 12:58:30;;;;;;;19.30;11.80;;;2.10;99.90;;;;;;4963066;28;20202;-68
2023/01/26 13:01:18;;;;;;;24.87;14.83;;;2.10;99.90;;;;;;4965294;28;20196;-68
2023/01/26 13:04:11;;;;;;;28.40;16.47;;;2.20;99.90;;;;;;4981275;28;20267;-69
2023/01/26 13:06:38;;;;;;;17.50;11.53;;;2.20;99.90;;;;;;4965377;28;20201;-68
2023/01/26 13:09:31;;;;;;;21.67;13.73;;;2.30;99.90;;;;;;4959794;28;20205;-69
2023/01/26 13:11:59;;;;;;;15.27;10.03;;;2.30;99.90;;;;;;4959517;28;20245;-69
2023/01/26 13:14:42;;;;;;;15.87;10.63;;;2.30;99.90;;;;;;4984245;28;20293;-69
2023/01/26 13:17:15;;;;;;;12.13;8.07;;;2.30;99.90;;;;;;4980393;28;20674;-68
2023/01/26 13:19:42;;;;;;;13.97;9.10;;;2.30;99.90;;;;;;4959225;28;20846;-68
2023/01/26 13:22:18;;;;;;;13.37;8.40;;;2.30;99.90;;;;;;4973021;28;20297;-68
2023/01/26 13:24:47;;;;;;;12.70;8.47;;;2.30;99.90;;;;;;4958240;28;20612;-69
2023/01/26 13:27:39;;;;;;;15.67;10.23;;;2.20;99.90;;;;;;4961535;28;20213;-69
2023/01/26 13:30:24;;;;;;;14.83;8.50;;;2.20;99.90;;;;;;4960987;28;20209;-67
2023/01/26 13:33:22;;;;;;;17.93;9.90;;;2.20;99.90;;;;;;4966311;28;20206;-67
2023/01/26 13:35:52;;;;;;;14.73;10.27;;;2.20;99.90;;;;;;4960952;28;20211;-69
2023/01/26 13:38:42;;;;;;;18.50;10.07;;;2.20;99.90;;;;;;4959643;28;20279;-67
2023/01/26 13:41:17;;;;;;;13.87;8.20;;;2.20;99.90;;;;;;4974597;28;20224;-69
2023/01/26 13:44:22;;;;;;;13.20;8.17;;;2.10;99.90;;;;;;4953576;28;20273;-62
2023/01/26 13:46:57;;;;;;;14.40;8.70;;;2.10;99.90;;;;;;4922253;29;20689;-63
2023/01/26 13:49:49;;;;;;;15.47;8.93;;;2.10;99.90;;;;;;4958385;28;20206;-61
2023/01/26 13:52:17;;;;;;;22.23;8.27;;;2.10;99.90;;;;;;4963056;28;20201;-62
2023/01/26 13:54:46;;;;;;;14.73;9.20;;;2.00;99.90;;;;;;4961907;28;20198;-61